sensor_id;sensor_type;location;lat;lon;timestamp;temperature;humidity
22321;DHT22;11328;53.928;18.522;2023-05-07T00:02:01;8.00;99.90
22321;DHT22;11328;53.928;18.522;2023-05-07T00:04:28;8.00;99.90
22321;DHT22;11328;53.928;18.522;2023-05-07T00:06:55;8.00;99.90
22321;DHT22;11328;53.928;18.522;2023-05-07T00:09:22;8.00;99.90
22321;DHT22;11328;53.928;18.522;2023-05-07T00:11:49;7.90;99.90
22321;DHT22;11328;53.928;18.522;2023-05-07T00:14:16;7.90;99.90
22321;DHT22;11328;53.928;18.522;2023-05-07T00:16:43;7.90;99.90
22321;DHT22;11328;53.928;18.522;2023-05-07T00:19:10;7.90;99.90
22321;DHT22;11328;53.928;18.522;2023-05-07T00:21:37;7.90;99.90
22321;DHT22;11328;53.928;18.522;2023-05-07T00:24:04;7.80;99.90
22321;DHT22;11328;53.928;18.522;2023-05-07T00:26:31;7.90;99.90
22321;DHT22;11328;53.928;18.522;2023-05-07T00:28:58;7.90;99.90
22321;DHT22;11328;53.928;18.522;2023-05-07T00:31:25;7.90;99.90
22321;DHT22;11328;53.928;18.522;2023-05-07T00:33:52;7.90;99.90
22321;DHT22;11328;53.928;18.522;2023-05-07T00:36:18;7.90;99.90
22321;DHT22;11328;53.928;18.522;2023-05-07T00:38:45;7.90;99.90
22321;DHT22;11328;53.928;18.522;2023-05-07T00:41:12;7.80;99.90
22321;DHT22;11328;53.928;18.522;2023-05-07T00:43:39;7.80;99.90
22321;DHT22;11328;53.928;18.522;2023-05-07T00:46:06;7.70;99.90
22321;DHT22;11328;53.928;18.522;2023-05-07T00:48:33;7.70;99.90
22321;DHT22;11328;53.928;18.522;2023-05-07T00:51:00;7.60;99.90
22321;DHT22;11328;53.928;18.522;2023-05-07T00:53:27;7.60;99.90
22321;DHT22;11328;53.928;18.522;2023-05-07T00:55:55;7.50;99.90
22321;DHT22;11328;53.928;18.522;2023-05-07T00:58:22;7.50;99.90
22321;DHT22;11328;53.928;18.522;2023-05-07T01:00:50;7.50;99.90
22321;DHT22;11328;53.928;18.522;2023-05-07T01:03:17;7.40;99.90
22321;DHT22;11328;53.928;18.522;2023-05-07T01:05:46;7.40;99.90
22321;DHT22;11328;53.928;18.522;2023-05-07T01:08:15;7.40;99.90
22321;DHT22;11328;53.928;18.522;2023-05-07T01:10:43;7.40;99.90
22321;DHT22;11328;53.928;18.522;2023-05-07T01:13:12;7.40;99.90
22321;DHT22;11328;53.928;18.522;2023-05-07T01:15:40;7.40;99.90
22321;DHT22;11328;53.928;18.522;2023-05-07T01:18:07;7.30;99.90
22321;DHT22;11328;53.928;18.522;2023-05-07T01:20:34;7.30;99.90
22321;DHT22;11328;53.928;18.522;2023-05-07T01:23:03;7.30;99.90
22321;DHT22;11328;53.928;18.522;2023-05-07T01:25:33;7.30;99.90
22321;DHT22;11328;53.928;18.522;2023-05-07T01:28:00;7.30;99.90
22321;DHT22;11328;53.928;18.522;2023-05-07T01:30:28;7.30;99.90
22321;DHT22;11328;53.928;18.522;2023-05-07T01:33:08;7.30;99.90
22321;DHT22;11328;53.928;18.522;2023-05-07T01:35:42;7.20;99.90
22321;DHT22;11328;53.928;18.522;2023-05-07T01:38:12;7.30;99.90
22321;DHT22;11328;53.928;18.522;2023-05-07T01:40:40;7.20;99.90
22321;DHT22;11328;53.928;18.522;2023-05-07T01:43:08;7.20;99.90
22321;DHT22;11328;53.928;18.522;2023-05-07T01:45:36;7.20;99.90
22321;DHT22;11328;53.928;18.522;2023-05-07T01:48:03;7.20;99.90
22321;DHT22;11328;53.928;18.522;2023-05-07T01:50:31;7.10;99.90
22321;DHT22;11328;53.928;18.522;2023-05-07T01:52:59;7.10;99.90
22321;DHT22;11328;53.928;18.522;2023-05-07T01:55:26;7.10;99.90
22321;DHT22;11328;53.928;18.522;2023-05-07T01:57:52;7.10;99.90
22321;DHT22;11328;53.928;18.522;2023-05-07T02:00:20;7.00;99.90
22321;DHT22;11328;53.928;18.522;2023-05-07T02:02:47;7.00;99.90
22321;DHT22;11328;53.928;18.522;2023-05-07T02:05:14;7.00;99.90
22321;DHT22;11328;53.928;18.522;2023-05-07T02:07:41;7.00;99.90
22321;DHT22;11328;53.928;18.522;2023-05-07T02:10:08;7.00;99.90
22321;DHT22;11328;53.928;18.522;2023-05-07T02:12:35;7.00;99.90
22321;DHT22;11328;53.928;18.522;2023-05-07T02:15:02;7.00;99.90
22321;DHT22;11328;53.928;18.522;2023-05-07T02:17:29;6.90;99.90
22321;DHT22;11328;53.928;18.522;2023-05-07T02:19:58;6.90;99.90
22321;DHT22;11328;53.928;18.522;2023-05-07T02:22:26;6.90;99.90
22321;DHT22;11328;53.928;18.522;2023-05-07T02:24:53;6.80;99.90
22321;DHT22;11328;53.928;18.522;2023-05-07T02:27:19;6.80;99.90
22321;DHT22;11328;53.928;18.522;2023-05-07T02:29:46;6.80;99.90
22321;DHT22;11328;53.928;18.522;2023-05-07T02:32:13;6.80;99.90
22321;DHT22;11328;53.928;18.522;2023-05-07T02:34:40;6.70;99.90
22321;DHT22;11328;53.928;18.522;2023-05-07T02:37:07;6.70;99.90
22321;DHT22;11328;53.928;18.522;2023-05-07T02:39:34;6.70;99.90
22321;DHT22;11328;53.928;18.522;2023-05-07T02:42:01;6.60;99.90
22321;DHT22;11328;53.928;18.522;2023-05-07T02:44:28;6.60;99.90
22321;DHT22;11328;53.928;18.522;2023-05-07T02:46:57;6.50;99.90
22321;DHT22;11328;53.928;18.522;2023-05-07T02:49:24;6.50;99.90
22321;DHT22;11328;53.928;18.522;2023-05-07T02:51:51;6.50;99.90
22321;DHT22;11328;53.928;18.522;2023-05-07T02:54:18;6.50;99.90
22321;DHT22;11328;53.928;18.522;2023-05-07T02:56:45;6.50;99.90
22321;DHT22;11328;53.928;18.522;2023-05-07T02:59:12;6.50;99.90
22321;DHT22;11328;53.928;18.522;2023-05-07T03:01:38;6.50;99.90
22321;DHT22;11328;53.928;18.522;2023-05-07T03:04:05;6.40;99.90
22321;DHT22;11328;53.928;18.522;2023-05-07T03:06:32;6.30;99.90
22321;DHT22;11328;53.928;18.522;2023-05-07T03:08:59;6.30;99.90
22321;DHT22;11328;53.928;18.522;2023-05-07T03:11:26;6.30;99.90
22321;DHT22;11328;53.928;18.522;2023-05-07T03:13:53;6.30;99.90
22321;DHT22;11328;53.928;18.522;2023-05-07T03:16:20;6.20;99.90
22321;DHT22;11328;53.928;18.522;2023-05-07T03:18:47;6.20;99.90
22321;DHT22;11328;53.928;18.522;2023-05-07T03:21:14;6.20;99.90
22321;DHT22;11328;53.928;18.522;2023-05-07T03:23:41;6.20;99.90
22321;DHT22;11328;53.928;18.522;2023-05-07T03:26:08;6.20;99.90
22321;DHT22;11328;53.928;18.522;2023-05-07T03:28:35;6.20;99.90
22321;DHT22;11328;53.928;18.522;2023-05-07T03:31:02;6.20;99.90
22321;DHT22;11328;53.928;18.522;2023-05-07T03:33:28;6.20;99.90
22321;DHT22;11328;53.928;18.522;2023-05-07T03:35:55;6.20;99.90
22321;DHT22;11328;53.928;18.522;2023-05-07T03:38:22;6.20;99.90
22321;DHT22;11328;53.928;18.522;2023-05-07T03:40:49;6.20;99.90
22321;DHT22;11328;53.928;18.522;2023-05-07T03:43:16;6.20;99.90
22321;DHT22;11328;53.928;18.522;2023-05-07T03:45:43;6.20;99.90
22321;DHT22;11328;53.928;18.522;2023-05-07T03:48:10;6.20;99.90
22321;DHT22;11328;53.928;18.522;2023-05-07T03:50:37;6.20;99.90
22321;DHT22;11328;53.928;18.522;2023-05-07T03:53:04;6.20;99.90
22321;DHT22;11328;53.928;18.522;2023-05-07T03:55:31;6.20;99.90
22321;DHT22;11328;53.928;18.522;2023-05-07T03:57:58;6.20;99.90
22321;DHT22;11328;53.928;18.522;2023-05-07T04:00:25;6.20;99.90
22321;DHT22;11328;53.928;18.522;2023-05-07T04:02:52;6.20;99.90
22321;DHT22;11328;53.928;18.522;2023-05-07T04:05:19;6.20;99.90
22321;DHT22;11328;53.928;18.522;2023-05-07T04:07:46;6.20;99.90
22321;DHT22;11328;53.928;18.522;2023-05-07T04:10:13;6.20;99.90
22321;DHT22;11328;53.928;18.522;2023-05-07T04:12:40;6.20;99.90
22321;DHT22;11328;53.928;18.522;2023-05-07T04:15:07;6.30;99.90
22321;DHT22;11328;53.928;18.522;2023-05-07T04:17:34;6.30;99.90
22321;DHT22;11328;53.928;18.522;2023-05-07T04:20:02;6.30;99.90
22321;DHT22;11328;53.928;18.522;2023-05-07T04:22:29;6.40;99.90
22321;DHT22;11328;53.928;18.522;2023-05-07T04:24:56;6.40;99.90
22321;DHT22;11328;53.928;18.522;2023-05-07T04:27:23;6.50;99.90
22321;DHT22;11328;53.928;18.522;2023-05-07T04:29:50;6.60;99.90
22321;DHT22;11328;53.928;18.522;2023-05-07T04:32:18;6.60;99.90
22321;DHT22;11328;53.928;18.522;2023-05-07T04:34:45;6.70;99.90
22321;DHT22;11328;53.928;18.522;2023-05-07T04:37:12;6.80;99.90
22321;DHT22;11328;53.928;18.522;2023-05-07T04:39:39;6.80;99.90
22321;DHT22;11328;53.928;18.522;2023-05-07T04:42:06;6.90;99.90
22321;DHT22;11328;53.928;18.522;2023-05-07T04:44:35;7.00;99.90
22321;DHT22;11328;53.928;18.522;2023-05-07T04:47:03;7.00;99.90
22321;DHT22;11328;53.928;18.522;2023-05-07T04:49:31;7.10;99.90
22321;DHT22;11328;53.928;18.522;2023-05-07T04:51:57;7.20;99.90
22321;DHT22;11328;53.928;18.522;2023-05-07T04:54:24;7.30;99.90
22321;DHT22;11328;53.928;18.522;2023-05-07T04:56:51;7.40;99.90
22321;DHT22;11328;53.928;18.522;2023-05-07T04:59:18;7.50;99.90
22321;DHT22;11328;53.928;18.522;2023-05-07T05:01:45;7.60;99.90
22321;DHT22;11328;53.928;18.522;2023-05-07T05:04:12;7.70;99.90
22321;DHT22;11328;53.928;18.522;2023-05-07T05:06:39;7.80;99.60
22321;DHT22;11328;53.928;18.522;2023-05-07T05:09:06;8.00;99.80
22321;DHT22;11328;53.928;18.522;2023-05-07T05:11:33;8.10;99.70
22321;DHT22;11328;53.928;18.522;2023-05-07T05:14:01;8.30;99.80
22321;DHT22;11328;53.928;18.522;2023-05-07T05:16:28;8.40;99.70
22321;DHT22;11328;53.928;18.522;2023-05-07T05:18:55;8.70;99.70
22321;DHT22;11328;53.928;18.522;2023-05-07T05:21:22;8.90;98.90
22321;DHT22;11328;53.928;18.522;2023-05-07T05:23:49;9.10;98.80
22321;DHT22;11328;53.928;18.522;2023-05-07T05:26:16;9.30;99.10
22321;DHT22;11328;53.928;18.522;2023-05-07T05:28:43;9.60;98.60
22321;DHT22;11328;53.928;18.522;2023-05-07T05:31:10;9.80;98.20
22321;DHT22;11328;53.928;18.522;2023-05-07T05:33:37;9.90;97.30
22321;DHT22;11328;53.928;18.522;2023-05-07T05:36:04;10.00;96.70
22321;DHT22;11328;53.928;18.522;2023-05-07T05:38:31;10.20;96.90
22321;DHT22;11328;53.928;18.522;2023-05-07T05:40:58;10.40;96.30
22321;DHT22;11328;53.928;18.522;2023-05-07T05:43:25;10.60;95.70
22321;DHT22;11328;53.928;18.522;2023-05-07T05:45:52;10.70;96.00
22321;DHT22;11328;53.928;18.522;2023-05-07T05:48:19;11.00;95.10
22321;DHT22;11328;53.928;18.522;2023-05-07T05:50:46;11.00;94.70
22321;DHT22;11328;53.928;18.522;2023-05-07T05:53:13;11.10;95.10
22321;DHT22;11328;53.928;18.522;2023-05-07T05:55:40;11.20;94.50
22321;DHT22;11328;53.928;18.522;2023-05-07T05:58:08;11.20;94.70
22321;DHT22;11328;53.928;18.522;2023-05-07T06:00:35;11.30;94.20
22321;DHT22;11328;53.928;18.522;2023-05-07T06:03:02;11.40;94.10
22321;DHT22;11328;53.928;18.522;2023-05-07T06:05:30;11.70;94.00
22321;DHT22;11328;53.928;18.522;2023-05-07T06:07:56;11.80;94.40
22321;DHT22;11328;53.928;18.522;2023-05-07T06:10:23;12.00;93.80
22321;DHT22;11328;53.928;18.522;2023-05-07T06:12:50;12.10;92.90
22321;DHT22;11328;53.928;18.522;2023-05-07T06:15:17;12.10;92.70
22321;DHT22;11328;53.928;18.522;2023-05-07T06:17:44;12.20;92.80
22321;DHT22;11328;53.928;18.522;2023-05-07T06:20:11;12.30;93.30
22321;DHT22;11328;53.928;18.522;2023-05-07T06:22:38;12.40;92.00
22321;DHT22;11328;53.928;18.522;2023-05-07T06:25:06;12.60;92.20
22321;DHT22;11328;53.928;18.522;2023-05-07T06:27:33;12.80;91.80
22321;DHT22;11328;53.928;18.522;2023-05-07T06:30:00;12.90;91.70
22321;DHT22;11328;53.928;18.522;2023-05-07T06:32:27;13.10;92.40
22321;DHT22;11328;53.928;18.522;2023-05-07T06:34:54;13.30;92.30
22321;DHT22;11328;53.928;18.522;2023-05-07T06:37:24;13.40;92.10
22321;DHT22;11328;53.928;18.522;2023-05-07T06:39:51;13.70;91.80
22321;DHT22;11328;53.928;18.522;2023-05-07T06:42:19;13.80;91.40
22321;DHT22;11328;53.928;18.522;2023-05-07T06:44:45;14.00;91.30
22321;DHT22;11328;53.928;18.522;2023-05-07T06:47:12;14.20;90.30
22321;DHT22;11328;53.928;18.522;2023-05-07T06:49:42;14.50;91.60
22321;DHT22;11328;53.928;18.522;2023-05-07T06:52:08;14.70;90.90
22321;DHT22;11328;53.928;18.522;2023-05-07T06:54:35;14.90;89.90
22321;DHT22;11328;53.928;18.522;2023-05-07T06:57:02;15.00;90.00
22321;DHT22;11328;53.928;18.522;2023-05-07T06:59:29;15.10;89.10
22321;DHT22;11328;53.928;18.522;2023-05-07T07:01:56;15.50;89.50
22321;DHT22;11328;53.928;18.522;2023-05-07T07:04:23;15.70;89.00
22321;DHT22;11328;53.928;18.522;2023-05-07T07:06:53;15.70;87.00
22321;DHT22;11328;53.928;18.522;2023-05-07T07:09:20;16.00;87.80
22321;DHT22;11328;53.928;18.522;2023-05-07T07:11:49;16.00;86.60
22321;DHT22;11328;53.928;18.522;2023-05-07T07:14:16;16.10;86.20
22321;DHT22;11328;53.928;18.522;2023-05-07T07:16:43;16.10;85.00
22321;DHT22;11328;53.928;18.522;2023-05-07T07:19:10;16.20;84.10
22321;DHT22;11328;53.928;18.522;2023-05-07T07:21:37;16.10;83.40
22321;DHT22;11328;53.928;18.522;2023-05-07T07:24:04;16.30;86.50
22321;DHT22;11328;53.928;18.522;2023-05-07T07:26:31;16.20;85.60
22321;DHT22;11328;53.928;18.522;2023-05-07T07:28:58;16.30;84.50
22321;DHT22;11328;53.928;18.522;2023-05-07T07:31:25;16.30;83.20
22321;DHT22;11328;53.928;18.522;2023-05-07T07:33:52;16.30;83.20
22321;DHT22;11328;53.928;18.522;2023-05-07T07:36:19;16.40;84.00
22321;DHT22;11328;53.928;18.522;2023-05-07T07:38:48;16.60;82.80
22321;DHT22;11328;53.928;18.522;2023-05-07T07:41:15;16.70;84.30
22321;DHT22;11328;53.928;18.522;2023-05-07T07:43:42;16.80;84.20
22321;DHT22;11328;53.928;18.522;2023-05-07T07:46:09;16.80;81.20
22321;DHT22;11328;53.928;18.522;2023-05-07T07:48:36;17.00;82.10
22321;DHT22;11328;53.928;18.522;2023-05-07T07:51:03;16.90;81.90
22321;DHT22;11328;53.928;18.522;2023-05-07T07:53:31;16.70;81.50
22321;DHT22;11328;53.928;18.522;2023-05-07T07:55:58;16.80;82.10
22321;DHT22;11328;53.928;18.522;2023-05-07T07:58:25;16.80;82.60
22321;DHT22;11328;53.928;18.522;2023-05-07T08:00:52;16.90;80.20
22321;DHT22;11328;53.928;18.522;2023-05-07T08:03:19;16.90;82.60
22321;DHT22;11328;53.928;18.522;2023-05-07T08:05:46;17.00;82.20
22321;DHT22;11328;53.928;18.522;2023-05-07T08:08:13;16.90;80.80
22321;DHT22;11328;53.928;18.522;2023-05-07T08:10:40;16.80;81.30
22321;DHT22;11328;53.928;18.522;2023-05-07T08:13:07;17.00;80.80
22321;DHT22;11328;53.928;18.522;2023-05-07T08:15:34;17.20;81.60
22321;DHT22;11328;53.928;18.522;2023-05-07T08:18:02;17.40;78.80
22321;DHT22;11328;53.928;18.522;2023-05-07T08:20:29;17.30;79.10
22321;DHT22;11328;53.928;18.522;2023-05-07T08:22:56;17.00;79.70
22321;DHT22;11328;53.928;18.522;2023-05-07T08:25:23;17.10;79.20
22321;DHT22;11328;53.928;18.522;2023-05-07T08:27:50;17.00;80.20
22321;DHT22;11328;53.928;18.522;2023-05-07T08:30:17;17.10;78.50
22321;DHT22;11328;53.928;18.522;2023-05-07T08:32:44;17.00;78.40
22321;DHT22;11328;53.928;18.522;2023-05-07T08:35:11;17.00;78.70
22321;DHT22;11328;53.928;18.522;2023-05-07T08:37:38;17.10;79.10
22321;DHT22;11328;53.928;18.522;2023-05-07T08:40:05;17.30;80.00
22321;DHT22;11328;53.928;18.522;2023-05-07T08:42:37;17.30;76.80
22321;DHT22;11328;53.928;18.522;2023-05-07T08:45:05;17.30;76.70
22321;DHT22;11328;53.928;18.522;2023-05-07T08:47:44;17.30;79.00
22321;DHT22;11328;53.928;18.522;2023-05-07T08:50:13;17.20;77.60
22321;DHT22;11328;53.928;18.522;2023-05-07T08:52:40;17.40;78.10
22321;DHT22;11328;53.928;18.522;2023-05-07T08:55:08;17.50;77.70
22321;DHT22;11328;53.928;18.522;2023-05-07T08:57:36;17.70;75.60
22321;DHT22;11328;53.928;18.522;2023-05-07T09:00:06;18.00;78.00
22321;DHT22;11328;53.928;18.522;2023-05-07T09:02:37;18.00;70.90
22321;DHT22;11328;53.928;18.522;2023-05-07T09:05:05;17.80;74.00
22321;DHT22;11328;53.928;18.522;2023-05-07T09:07:32;17.70;75.20
22321;DHT22;11328;53.928;18.522;2023-05-07T09:10:02;17.90;77.30
22321;DHT22;11328;53.928;18.522;2023-05-07T09:12:30;18.00;76.20
22321;DHT22;11328;53.928;18.522;2023-05-07T09:14:58;18.00;74.20
22321;DHT22;11328;53.928;18.522;2023-05-07T09:17:26;18.10;73.10
22321;DHT22;11328;53.928;18.522;2023-05-07T09:19:54;18.20;72.60
22321;DHT22;11328;53.928;18.522;2023-05-07T09:22:21;18.00;73.90
22321;DHT22;11328;53.928;18.522;2023-05-07T09:24:50;18.10;74.60
22321;DHT22;11328;53.928;18.522;2023-05-07T09:27:18;18.60;73.10
22321;DHT22;11328;53.928;18.522;2023-05-07T09:29:45;18.70;74.50
22321;DHT22;11328;53.928;18.522;2023-05-07T09:32:12;18.80;76.40
22321;DHT22;11328;53.928;18.522;2023-05-07T09:34:39;18.80;72.60
22321;DHT22;11328;53.928;18.522;2023-05-07T09:37:08;18.90;70.30
22321;DHT22;11328;53.928;18.522;2023-05-07T09:39:43;18.80;72.80
22321;DHT22;11328;53.928;18.522;2023-05-07T09:42:14;18.70;69.00
22321;DHT22;11328;53.928;18.522;2023-05-07T09:44:43;18.90;71.20
22321;DHT22;11328;53.928;18.522;2023-05-07T09:47:11;19.00;71.30
22321;DHT22;11328;53.928;18.522;2023-05-07T09:49:47;19.00;71.40
22321;DHT22;11328;53.928;18.522;2023-05-07T09:52:15;19.10;70.30
22321;DHT22;11328;53.928;18.522;2023-05-07T09:54:43;19.40;69.60
22321;DHT22;11328;53.928;18.522;2023-05-07T09:57:14;19.20;68.80
22321;DHT22;11328;53.928;18.522;2023-05-07T09:59:43;19.40;69.60
22321;DHT22;11328;53.928;18.522;2023-05-07T10:02:11;19.40;68.70
22321;DHT22;11328;53.928;18.522;2023-05-07T10:04:40;19.40;67.30
22321;DHT22;11328;53.928;18.522;2023-05-07T10:07:07;19.40;66.80
22321;DHT22;11328;53.928;18.522;2023-05-07T10:09:36;19.40;66.90
22321;DHT22;11328;53.928;18.522;2023-05-07T10:12:05;19.10;65.80
22321;DHT22;11328;53.928;18.522;2023-05-07T10:14:33;18.90;66.50
22321;DHT22;11328;53.928;18.522;2023-05-07T10:17:02;18.80;67.20
22321;DHT22;11328;53.928;18.522;2023-05-07T10:19:29;18.70;69.50
22321;DHT22;11328;53.928;18.522;2023-05-07T10:22:03;18.60;66.50
22321;DHT22;11328;53.928;18.522;2023-05-07T10:24:33;18.60;65.20
22321;DHT22;11328;53.928;18.522;2023-05-07T10:27:04;18.80;66.60
22321;DHT22;11328;53.928;18.522;2023-05-07T10:30:15;18.80;67.50
22321;DHT22;11328;53.928;18.522;2023-05-07T10:33:05;18.90;67.80
22321;DHT22;11328;53.928;18.522;2023-05-07T10:35:41;19.10;68.20
22321;DHT22;11328;53.928;18.522;2023-05-07T10:38:11;19.20;66.80
22321;DHT22;11328;53.928;18.522;2023-05-07T10:40:39;19.20;67.80
22321;DHT22;11328;53.928;18.522;2023-05-07T10:43:06;19.20;66.40
22321;DHT22;11328;53.928;18.522;2023-05-07T10:45:36;19.40;66.60
22321;DHT22;11328;53.928;18.522;2023-05-07T10:48:16;19.50;70.00
22321;DHT22;11328;53.928;18.522;2023-05-07T10:50:46;19.20;71.10
22321;DHT22;11328;53.928;18.522;2023-05-07T10:55:44;19.10;67.30
22321;DHT22;11328;53.928;18.522;2023-05-07T10:58:24;19.20;67.10
22321;DHT22;11328;53.928;18.522;2023-05-07T11:00:59;19.40;68.00
22321;DHT22;11328;53.928;18.522;2023-05-07T11:03:28;19.30;65.80
22321;DHT22;11328;53.928;18.522;2023-05-07T11:06:15;19.10;67.90
22321;DHT22;11328;53.928;18.522;2023-05-07T11:08:58;19.00;67.20
22321;DHT22;11328;53.928;18.522;2023-05-07T11:11:47;19.00;66.40
22321;DHT22;11328;53.928;18.522;2023-05-07T11:17:08;19.40;65.40
22321;DHT22;11328;53.928;18.522;2023-05-07T11:25:04;19.60;66.50
22321;DHT22;11328;53.928;18.522;2023-05-07T11:27:32;19.70;65.50
22321;DHT22;11328;53.928;18.522;2023-05-07T11:30:00;19.80;65.70
22321;DHT22;11328;53.928;18.522;2023-05-07T11:32:31;19.90;64.00
22321;DHT22;11328;53.928;18.522;2023-05-07T11:35:00;19.80;64.50
22321;DHT22;11328;53.928;18.522;2023-05-07T11:37:28;19.60;64.20
22321;DHT22;11328;53.928;18.522;2023-05-07T11:40:07;19.50;65.20
22321;DHT22;11328;53.928;18.522;2023-05-07T11:42:39;19.10;62.80
22321;DHT22;11328;53.928;18.522;2023-05-07T11:45:09;18.90;65.80
22321;DHT22;11328;53.928;18.522;2023-05-07T11:47:37;19.10;65.40
22321;DHT22;11328;53.928;18.522;2023-05-07T11:50:06;19.20;66.40
22321;DHT22;11328;53.928;18.522;2023-05-07T11:52:34;19.20;66.90
22321;DHT22;11328;53.928;18.522;2023-05-07T11:55:02;19.20;64.90
22321;DHT22;11328;53.928;18.522;2023-05-07T11:57:33;19.30;64.00
22321;DHT22;11328;53.928;18.522;2023-05-07T12:00:01;19.60;63.70
22321;DHT22;11328;53.928;18.522;2023-05-07T12:02:31;19.60;65.10
22321;DHT22;11328;53.928;18.522;2023-05-07T12:05:00;19.40;62.40
22321;DHT22;11328;53.928;18.522;2023-05-07T12:07:28;19.30;62.40
22321;DHT22;11328;53.928;18.522;2023-05-07T12:09:56;19.10;63.50
22321;DHT22;11328;53.928;18.522;2023-05-07T12:12:23;19.30;64.10
22321;DHT22;11328;53.928;18.522;2023-05-07T12:14:50;19.30;63.10
22321;DHT22;11328;53.928;18.522;2023-05-07T12:17:17;19.30;63.90
22321;DHT22;11328;53.928;18.522;2023-05-07T12:19:45;19.40;65.80
22321;DHT22;11328;53.928;18.522;2023-05-07T12:22:12;19.40;64.40
22321;DHT22;11328;53.928;18.522;2023-05-07T12:24:45;19.40;65.00
22321;DHT22;11328;53.928;18.522;2023-05-07T12:27:15;19.40;64.80
22321;DHT22;11328;53.928;18.522;2023-05-07T12:29:50;19.10;62.90
22321;DHT22;11328;53.928;18.522;2023-05-07T12:32:18;19.00;64.50
22321;DHT22;11328;53.928;18.522;2023-05-07T12:34:49;19.00;64.20
22321;DHT22;11328;53.928;18.522;2023-05-07T12:37:23;18.90;66.20
22321;DHT22;11328;53.928;18.522;2023-05-07T12:40:10;18.90;66.20
22321;DHT22;11328;53.928;18.522;2023-05-07T12:42:40;18.80;64.40
22321;DHT22;11328;53.928;18.522;2023-05-07T12:45:16;18.80;64.70
22321;DHT22;11328;53.928;18.522;2023-05-07T12:47:47;19.00;66.60
22321;DHT22;11328;53.928;18.522;2023-05-07T12:50:15;19.00;68.30
22321;DHT22;11328;53.928;18.522;2023-05-07T12:52:47;18.90;65.20
22321;DHT22;11328;53.928;18.522;2023-05-07T12:55:15;18.80;64.70
22321;DHT22;11328;53.928;18.522;2023-05-07T12:57:47;18.70;65.10
22321;DHT22;11328;53.928;18.522;2023-05-07T13:00:15;18.70;63.80
22321;DHT22;11328;53.928;18.522;2023-05-07T13:02:43;18.70;63.50
22321;DHT22;11328;53.928;18.522;2023-05-07T13:05:12;18.70;65.20
22321;DHT22;11328;53.928;18.522;2023-05-07T13:07:39;18.80;65.80
22321;DHT22;11328;53.928;18.522;2023-05-07T13:10:07;18.90;64.40
22321;DHT22;11328;53.928;18.522;2023-05-07T13:12:35;18.90;64.20
22321;DHT22;11328;53.928;18.522;2023-05-07T13:15:02;18.90;65.50
22321;DHT22;11328;53.928;18.522;2023-05-07T13:17:29;18.90;65.90
22321;DHT22;11328;53.928;18.522;2023-05-07T13:19:58;18.80;67.40
22321;DHT22;11328;53.928;18.522;2023-05-07T13:22:25;18.70;65.50
22321;DHT22;11328;53.928;18.522;2023-05-07T13:24:52;18.50;65.50
22321;DHT22;11328;53.928;18.522;2023-05-07T13:27:19;18.30;64.50
22321;DHT22;11328;53.928;18.522;2023-05-07T13:29:46;18.30;64.90
22321;DHT22;11328;53.928;18.522;2023-05-07T13:32:13;18.20;65.10
22321;DHT22;11328;53.928;18.522;2023-05-07T13:34:40;18.30;67.30
22321;DHT22;11328;53.928;18.522;2023-05-07T13:37:07;18.50;66.90
22321;DHT22;11328;53.928;18.522;2023-05-07T13:39:37;18.50;64.10
22321;DHT22;11328;53.928;18.522;2023-05-07T13:42:04;18.40;65.40
22321;DHT22;11328;53.928;18.522;2023-05-07T13:44:31;18.20;64.70
22321;DHT22;11328;53.928;18.522;2023-05-07T13:46:57;18.20;65.40
22321;DHT22;11328;53.928;18.522;2023-05-07T13:49:24;18.30;64.60
22321;DHT22;11328;53.928;18.522;2023-05-07T13:51:51;18.30;65.50
22321;DHT22;11328;53.928;18.522;2023-05-07T13:54:18;18.50;65.80
22321;DHT22;11328;53.928;18.522;2023-05-07T13:56:45;18.40;64.90
22321;DHT22;11328;53.928;18.522;2023-05-07T13:59:12;18.30;64.70
22321;DHT22;11328;53.928;18.522;2023-05-07T14:01:41;18.10;64.70
22321;DHT22;11328;53.928;18.522;2023-05-07T14:04:08;18.20;68.30
22321;DHT22;11328;53.928;18.522;2023-05-07T14:06:35;18.30;65.30
22321;DHT22;11328;53.928;18.522;2023-05-07T14:09:02;18.30;65.40
22321;DHT22;11328;53.928;18.522;2023-05-07T14:11:29;18.50;66.80
22321;DHT22;11328;53.928;18.522;2023-05-07T14:13:56;18.50;63.50
22321;DHT22;11328;53.928;18.522;2023-05-07T14:16:23;18.50;64.00
22321;DHT22;11328;53.928;18.522;2023-05-07T14:18:50;18.50;63.50
22321;DHT22;11328;53.928;18.522;2023-05-07T14:21:17;18.70;63.50
22321;DHT22;11328;53.928;18.522;2023-05-07T14:23:44;18.60;64.20
22321;DHT22;11328;53.928;18.522;2023-05-07T14:26:11;18.70;64.40
22321;DHT22;11328;53.928;18.522;2023-05-07T14:28:38;18.70;63.20
22321;DHT22;11328;53.928;18.522;2023-05-07T14:31:06;18.70;62.60
22321;DHT22;11328;53.928;18.522;2023-05-07T14:33:33;18.60;62.90
22321;DHT22;11328;53.928;18.522;2023-05-07T14:36:00;18.60;63.10
22321;DHT22;11328;53.928;18.522;2023-05-07T14:38:27;18.50;63.10
22321;DHT22;11328;53.928;18.522;2023-05-07T14:40:54;18.20;61.00
22321;DHT22;11328;53.928;18.522;2023-05-07T14:43:22;18.20;65.10
22321;DHT22;11328;53.928;18.522;2023-05-07T14:45:49;18.20;68.30
22321;DHT22;11328;53.928;18.522;2023-05-07T14:48:16;18.10;69.30
22321;DHT22;11328;53.928;18.522;2023-05-07T14:50:47;18.00;69.00
22321;DHT22;11328;53.928;18.522;2023-05-07T14:53:15;18.00;69.00
22321;DHT22;11328;53.928;18.522;2023-05-07T14:55:42;18.10;69.30
22321;DHT22;11328;53.928;18.522;2023-05-07T14:58:10;18.00;69.30
22321;DHT22;11328;53.928;18.522;2023-05-07T15:00:37;18.00;69.30
22321;DHT22;11328;53.928;18.522;2023-05-07T15:03:07;18.10;70.70
22321;DHT22;11328;53.928;18.522;2023-05-07T15:05:36;18.10;69.70
22321;DHT22;11328;53.928;18.522;2023-05-07T15:08:04;17.90;68.20
22321;DHT22;11328;53.928;18.522;2023-05-07T15:10:33;17.80;69.10
22321;DHT22;11328;53.928;18.522;2023-05-07T15:13:07;17.70;70.00
22321;DHT22;11328;53.928;18.522;2023-05-07T15:15:41;17.80;70.00
22321;DHT22;11328;53.928;18.522;2023-05-07T15:18:10;17.60;69.00
22321;DHT22;11328;53.928;18.522;2023-05-07T15:20:37;17.40;69.40
22321;DHT22;11328;53.928;18.522;2023-05-07T15:23:05;17.40;69.40
22321;DHT22;11328;53.928;18.522;2023-05-07T15:25:36;17.40;70.60
22321;DHT22;11328;53.928;18.522;2023-05-07T15:28:03;17.50;70.00
22321;DHT22;11328;53.928;18.522;2023-05-07T15:30:30;17.50;69.70
22321;DHT22;11328;53.928;18.522;2023-05-07T15:32:57;17.40;69.60
22321;DHT22;11328;53.928;18.522;2023-05-07T15:35:25;17.50;69.40
22321;DHT22;11328;53.928;18.522;2023-05-07T15:37:52;17.40;69.80
22321;DHT22;11328;53.928;18.522;2023-05-07T15:40:19;17.40;69.70